sensor_id;sensor_type;location;lat;lon;timestamp;pressure;altitude;pressure_sealevel;temperature;humidity
78717;BME280;68045;50.042;14.432;2023-04-16T00:00:37;98032.66;;;4.83;81.85
78717;BME280;68045;50.042;14.432;2023-04-16T00:04:58;98043.53;;;4.80;81.81
78717;BME280;68045;50.042;14.432;2023-04-16T00:08:59;98042.53;;;4.87;81.73
78717;BME280;68045;50.042;14.432;2023-04-16T00:12:59;98036.31;;;4.95;80.52
78717;BME280;68045;50.042;14.432;2023-04-16T00:17:00;98035.91;;;4.98;80.62
78717;BME280;68045;50.042;14.432;2023-04-16T00:21:01;98026.88;;;5.01;80.09
78717;BME280;68045;50.042;14.432;2023-04-16T00:25:02;98032.09;;;5.01;79.99
78717;BME280;68045;50.042;14.432;2023-04-16T00:29:03;98029.28;;;4.95;80.64
78717;BME280;68045;50.042;14.432;2023-04-16T00:33:04;98024.06;;;5.09;80.02
78717;BME280;68045;50.042;14.432;2023-04-16T00:37:05;98025.66;;;5.03;80.42
78717;BME280;68045;50.042;14.432;2023-04-16T00:41:06;98027.25;;;5.04;80.17
78717;BME280;68045;50.042;14.432;2023-04-16T00:45:08;98026.25;;;5.12;80.26
78717;BME280;68045;50.042;14.432;2023-04-16T00:49:09;98028.28;;;5.23;79.39
78717;BME280;68045;50.042;14.432;2023-04-16T00:53:10;98035.50;;;5.34;79.20
78717;BME280;68045;50.042;14.432;2023-04-16T00:57:12;98030.28;;;5.28;79.24
78717;BME280;68045;50.042;14.432;2023-04-16T01:01:14;98027.88;;;5.19;79.61
78717;BME280;68045;50.042;14.432;2023-04-16T01:05:15;98026.25;;;5.25;79.32
78717;BME280;68045;50.042;14.432;2023-04-16T01:09:16;98026.47;;;5.17;79.63
78717;BME280;68045;50.042;14.432;2023-04-16T01:13:17;98035.50;;;5.14;80.81
78717;BME280;68045;50.042;14.432;2023-04-16T01:17:18;98034.31;;;5.30;80.09
78717;BME280;68045;50.042;14.432;2023-04-16T01:21:19;98048.38;;;5.42;79.51
78717;BME280;68045;50.042;14.432;2023-04-16T01:25:20;98042.56;;;5.40;79.10
78717;BME280;68045;50.042;14.432;2023-04-16T01:29:21;98047.78;;;5.47;78.60
78717;BME280;68045;50.042;14.432;2023-04-16T01:33:23;98056.44;;;5.47;78.65
78717;BME280;68045;50.042;14.432;2023-04-16T01:37:24;98058.66;;;5.57;78.42
78717;BME280;68045;50.042;14.432;2023-04-16T01:41:25;98053.81;;;5.61;77.96
78717;BME280;68045;50.042;14.432;2023-04-16T01:45:26;98062.09;;;5.64;78.40
78717;BME280;68045;50.042;14.432;2023-04-16T01:49:27;98050.81;;;5.37;79.34
78717;BME280;68045;50.042;14.432;2023-04-16T01:53:29;98049.59;;;5.40;78.93
78717;BME280;68045;50.042;14.432;2023-04-16T01:57:29;98052.81;;;5.42;78.93
78717;BME280;68045;50.042;14.432;2023-04-16T02:01:31;98051.22;;;5.34;79.22
78717;BME280;68045;50.042;14.432;2023-04-16T02:05:32;98060.28;;;5.45;79.46
78717;BME280;68045;50.042;14.432;2023-04-16T02:09:34;98059.28;;;5.53;79.13
78717;BME280;68045;50.042;14.432;2023-04-16T02:13:36;98071.75;;;5.37;79.25
78717;BME280;68045;50.042;14.432;2023-04-16T02:17:38;98073.16;;;5.40;79.72
78717;BME280;68045;50.042;14.432;2023-04-16T02:21:43;98074.56;;;5.42;79.66
78717;BME280;68045;50.042;14.432;2023-04-16T02:25:45;98077.59;;;5.46;79.25
78717;BME280;68045;50.042;14.432;2023-04-16T02:29:47;98077.00;;;5.50;79.18
78717;BME280;68045;50.042;14.432;2023-04-16T02:33:51;98090.88;;;5.44;79.83
78717;BME280;68045;50.042;14.432;2023-04-16T02:37:52;98086.25;;;5.40;79.44
78717;BME280;68045;50.042;14.432;2023-04-16T02:41:53;98088.06;;;5.39;79.80
78717;BME280;68045;50.042;14.432;2023-04-16T02:45:55;98084.44;;;5.40;79.55
78717;BME280;68045;50.042;14.432;2023-04-16T02:49:56;98089.88;;;5.52;79.07
78717;BME280;68045;50.042;14.432;2023-04-16T02:53:56;98091.69;;;5.51;79.12
78717;BME280;68045;50.042;14.432;2023-04-16T02:57:57;98086.25;;;5.46;79.23
78717;BME280;68045;50.042;14.432;2023-04-16T03:01:58;98092.06;;;5.55;78.89
78717;BME280;68045;50.042;14.432;2023-04-16T03:05:59;98097.53;;;5.67;77.88
78717;BME280;68045;50.042;14.432;2023-04-16T03:10:00;98100.72;;;5.62;78.63
78717;BME280;68045;50.042;14.432;2023-04-16T03:14:01;98098.31;;;5.61;79.00
78717;BME280;68045;50.042;14.432;2023-04-16T03:18:02;98106.78;;;5.69;77.94
78717;BME280;68045;50.042;14.432;2023-04-16T03:22:03;98096.91;;;5.78;78.24
78717;BME280;68045;50.042;14.432;2023-04-16T03:26:04;98101.53;;;5.83;77.31
78717;BME280;68045;50.042;14.432;2023-04-16T03:30:09;98097.31;;;5.75;77.78
78717;BME280;68045;50.042;14.432;2023-04-16T03:34:10;98097.09;;;5.76;77.74
78717;BME280;68045;50.042;14.432;2023-04-16T03:38:13;98104.78;;;5.71;77.96
78717;BME280;68045;50.042;14.432;2023-04-16T03:42:14;98105.16;;;5.62;77.98
78717;BME280;68045;50.042;14.432;2023-04-16T03:46:15;98108.19;;;5.52;78.20
78717;BME280;68045;50.042;14.432;2023-04-16T03:50:17;98110.00;;;5.32;78.87
78717;BME280;68045;50.042;14.432;2023-04-16T03:54:20;98106.56;;;5.24;79.63
78717;BME280;68045;50.042;14.432;2023-04-16T03:58:27;98115.97;;;4.99;80.32
78717;BME280;68045;50.042;14.432;2023-04-16T04:02:29;98124.72;;;4.72;81.49
78717;BME280;68045;50.042;14.432;2023-04-16T04:06:30;98129.34;;;4.69;81.92
78717;BME280;68045;50.042;14.432;2023-04-16T04:10:33;98136.38;;;4.69;81.76
78717;BME280;68045;50.042;14.432;2023-04-16T04:14:35;98146.63;;;4.64;82.04
78717;BME280;68045;50.042;14.432;2023-04-16T04:18:40;98144.63;;;4.66;81.45
78717;BME280;68045;50.042;14.432;2023-04-16T04:22:41;98154.72;;;4.76;81.35
78717;BME280;68045;50.042;14.432;2023-04-16T04:26:42;98157.63;;;4.94;80.52
78717;BME280;68045;50.042;14.432;2023-04-16T04:30:44;98162.22;;;4.92;80.26
78717;BME280;68045;50.042;14.432;2023-04-16T04:34:45;98167.34;;;4.72;81.29
78717;BME280;68045;50.042;14.432;2023-04-16T04:38:46;98185.88;;;4.77;81.14
78717;BME280;68045;50.042;14.432;2023-04-16T04:42:47;98185.25;;;4.68;81.58
78717;BME280;68045;50.042;14.432;2023-04-16T04:46:49;98184.81;;;4.65;81.71
78717;BME280;68045;50.042;14.432;2023-04-16T04:50:50;98193.72;;;4.77;81.71
78717;BME280;68045;50.042;14.432;2023-04-16T04:54:51;98201.41;;;4.85;80.90
78717;BME280;68045;50.042;14.432;2023-04-16T04:58:53;98206.22;;;4.82;81.27
78717;BME280;68045;50.042;14.432;2023-04-16T05:02:55;98199.00;;;4.84;81.57
78717;BME280;68045;50.042;14.432;2023-04-16T05:06:55;98207.13;;;5.02;80.79
78717;BME280;68045;50.042;14.432;2023-04-16T05:10:56;98213.78;;;5.11;80.10
78717;BME280;68045;50.042;14.432;2023-04-16T05:14:57;98218.06;;;5.26;79.68
78717;BME280;68045;50.042;14.432;2023-04-16T05:18:58;98219.66;;;5.27;78.92
78717;BME280;68045;50.042;14.432;2023-04-16T05:22:59;98219.31;;;5.36;79.48
78717;BME280;68045;50.042;14.432;2023-04-16T05:27:00;98229.56;;;5.38;78.79
78717;BME280;68045;50.042;14.432;2023-04-16T05:31:01;98238.88;;;5.54;78.85
78717;BME280;68045;50.042;14.432;2023-04-16T05:35:01;98239.72;;;5.67;77.47
78717;BME280;68045;50.042;14.432;2023-04-16T05:39:02;98244.16;;;5.73;77.09
78717;BME280;68045;50.042;14.432;2023-04-16T05:43:03;98251.59;;;5.76;76.20
78717;BME280;68045;50.042;14.432;2023-04-16T05:47:04;98245.19;;;5.86;76.37
78717;BME280;68045;50.042;14.432;2023-04-16T05:51:06;98256.50;;;5.99;76.05
78717;BME280;68045;50.042;14.432;2023-04-16T05:55:08;98264.75;;;6.03;76.12
78717;BME280;68045;50.042;14.432;2023-04-16T05:59:09;98265.56;;;6.23;75.25
78717;BME280;68045;50.042;14.432;2023-04-16T06:03:10;98261.72;;;6.52;74.59
78717;BME280;68045;50.042;14.432;2023-04-16T06:07:11;98269.13;;;6.75;73.93
78717;BME280;68045;50.042;14.432;2023-04-16T06:11:12;98265.09;;;6.86;72.41
78717;BME280;68045;50.042;14.432;2023-04-16T06:15:13;98273.94;;;6.98;72.20
78717;BME280;68045;50.042;14.432;2023-04-16T06:19:14;98279.22;;;6.92;72.46
78717;BME280;68045;50.042;14.432;2023-04-16T06:23:15;98276.13;;;7.08;71.01
78717;BME280;68045;50.042;14.432;2023-04-16T06:27:16;98275.63;;;7.31;71.13
78717;BME280;68045;50.042;14.432;2023-04-16T06:31:17;98273.84;;;7.18;71.11
78717;BME280;68045;50.042;14.432;2023-04-16T06:35:18;98273.66;;;7.20;70.16
78717;BME280;68045;50.042;14.432;2023-04-16T06:39:19;98273.56;;;7.39;70.90
78717;BME280;68045;50.042;14.432;2023-04-16T06:43:23;98272.38;;;7.74;69.07
78717;BME280;68045;50.042;14.432;2023-04-16T06:47:24;98277.69;;;7.98;68.76
78717;BME280;68045;50.042;14.432;2023-04-16T06:51:25;98279.13;;;8.26;67.65
78717;BME280;68045;50.042;14.432;2023-04-16T06:55:26;98277.78;;;8.42;66.56
78717;BME280;68045;50.042;14.432;2023-04-16T06:59:27;98270.88;;;8.47;66.67
78717;BME280;68045;50.042;14.432;2023-04-16T07:03:28;98272.72;;;8.65;65.19
78717;BME280;68045;50.042;14.432;2023-04-16T07:07:29;98286.94;;;8.83;64.44
78717;BME280;68045;50.042;14.432;2023-04-16T07:11:30;98281.38;;;9.09;64.63
78717;BME280;68045;50.042;14.432;2023-04-16T07:15:31;98282.75;;;9.30;63.13
78717;BME280;68045;50.042;14.432;2023-04-16T07:19:32;98289.94;;;9.71;62.35
78717;BME280;68045;50.042;14.432;2023-04-16T07:23:33;98292.94;;;10.16;61.65
78717;BME280;68045;50.042;14.432;2023-04-16T07:27:34;98296.22;;;10.42;60.47
78717;BME280;68045;50.042;14.432;2023-04-16T07:31:35;98302.19;;;10.61;59.71
78717;BME280;68045;50.042;14.432;2023-04-16T07:35:36;98312.63;;;10.91;59.27
78717;BME280;68045;50.042;14.432;2023-04-16T07:39:37;98305.63;;;10.96;57.85
78717;BME280;68045;50.042;14.432;2023-04-16T07:43:38;98315.16;;;11.09;56.39
78717;BME280;68045;50.042;14.432;2023-04-16T07:47:39;98315.59;;;11.30;57.75
78717;BME280;68045;50.042;14.432;2023-04-16T07:51:40;98321.44;;;11.32;57.02
78717;BME280;68045;50.042;14.432;2023-04-16T07:55:41;98327.81;;;11.47;57.02
78717;BME280;68045;50.042;14.432;2023-04-16T07:59:42;98328.00;;;11.81;56.43
78717;BME280;68045;50.042;14.432;2023-04-16T08:03:42;98337.44;;;12.05;54.95
78717;BME280;68045;50.042;14.432;2023-04-16T08:07:43;98334.59;;;12.41;54.15
78717;BME280;68045;50.042;14.432;2023-04-16T08:11:44;98333.56;;;12.58;53.31
78717;BME280;68045;50.042;14.432;2023-04-16T08:15:45;98340.13;;;12.73;52.99
78717;BME280;68045;50.042;14.432;2023-04-16T08:19:46;98332.75;;;12.91;52.07
78717;BME280;68045;50.042;14.432;2023-04-16T08:23:47;98342.25;;;13.09;52.11
78717;BME280;68045;50.042;14.432;2023-04-16T08:27:48;98338.50;;;13.05;52.60
78717;BME280;68045;50.042;14.432;2023-04-16T08:31:49;98350.53;;;13.13;52.89
78717;BME280;68045;50.042;14.432;2023-04-16T08:35:50;98351.63;;;13.17;51.24
78717;BME280;68045;50.042;14.432;2023-04-16T08:39:51;98347.31;;;13.11;52.17
78717;BME280;68045;50.042;14.432;2023-04-16T08:43:54;98360.50;;;13.06;52.30
78717;BME280;68045;50.042;14.432;2023-04-16T08:47:56;98362.00;;;13.35;51.95
78717;BME280;68045;50.042;14.432;2023-04-16T08:51:57;98359.88;;;13.59;51.04
78717;BME280;68045;50.042;14.432;2023-04-16T08:56:01;98365.41;;;14.01;49.76
78717;BME280;68045;50.042;14.432;2023-04-16T09:00:06;98356.13;;;14.53;47.93
78717;BME280;68045;50.042;14.432;2023-04-16T09:04:07;98363.75;;;14.76;47.54
78717;BME280;68045;50.042;14.432;2023-04-16T09:08:09;98365.56;;;14.71;46.62
78717;BME280;68045;50.042;14.432;2023-04-16T09:12:10;98370.06;;;14.70;46.28
78717;BME280;68045;50.042;14.432;2023-04-16T09:16:12;98374.69;;;14.80;46.11
78717;BME280;68045;50.042;14.432;2023-04-16T09:20:14;98378.50;;;14.94;45.78
78717;BME280;68045;50.042;14.432;2023-04-16T09:24:17;98381.50;;;15.08;45.73
78717;BME280;68045;50.042;14.432;2023-04-16T09:28:56;98381.72;;;16.06;43.75
78717;BME280;68045;50.042;14.432;2023-04-16T09:37:14;98384.47;;;17.18;40.93
78717;BME280;68045;50.042;14.432;2023-04-16T09:41:18;98383.09;;;19.18;37.18
78717;BME280;68045;50.042;14.432;2023-04-16T09:45:19;98384.38;;;20.73;34.21
78717;BME280;68045;50.042;14.432;2023-04-16T09:49:20;98381.38;;;23.61;28.98
78717;BME280;68045;50.042;14.432;2023-04-16T09:53:24;98390.78;;;23.41;28.20
78717;BME280;68045;50.042;14.432;2023-04-16T09:57:28;98397.09;;;22.83;28.26
78717;BME280;68045;50.042;14.432;2023-04-16T10:01:29;98387.47;;;23.83;26.40
78717;BME280;68045;50.042;14.432;2023-04-16T10:05:30;98385.88;;;26.18;24.07
78717;BME280;68045;50.042;14.432;2023-04-16T10:09:36;98386.53;;;28.61;21.53
78717;BME280;68045;50.042;14.432;2023-04-16T10:13:37;98384.56;;;30.32;18.60
78717;BME280;68045;50.042;14.432;2023-04-16T10:17:38;98387.69;;;32.37;17.04
78717;BME280;68045;50.042;14.432;2023-04-16T10:21:39;98391.19;;;34.04;15.11
78717;BME280;68045;50.042;14.432;2023-04-16T10:25:41;98400.69;;;35.50;12.91
78717;BME280;68045;50.042;14.432;2023-04-16T10:29:43;98395.63;;;35.60;13.40
78717;BME280;68045;50.042;14.432;2023-04-16T10:33:45;98395.13;;;33.48;14.27
78717;BME280;68045;50.042;14.432;2023-04-16T10:37:46;98395.16;;;30.95;16.72
78717;BME280;68045;50.042;14.432;2023-04-16T10:41:47;98391.94;;;29.96;17.24
78717;BME280;68045;50.042;14.432;2023-04-16T10:45:49;98395.25;;;30.79;16.59
78717;BME280;68045;50.042;14.432;2023-04-16T10:49:50;98392.34;;;31.80;15.34
78717;BME280;68045;50.042;14.432;2023-04-16T10:53:52;98388.25;;;32.23;14.87
78717;BME280;68045;50.042;14.432;2023-04-16T10:57:53;98394.19;;;31.76;15.54
78717;BME280;68045;50.042;14.432;2023-04-16T11:01:55;98394.31;;;30.52;16.66
78717;BME280;68045;50.042;14.432;2023-04-16T11:06:23;98392.91;;;28.81;18.66
78717;BME280;68045;50.042;14.432;2023-04-16T11:10:25;98388.00;;;27.08;20.00
78717;BME280;68045;50.042;14.432;2023-04-16T11:14:26;98384.53;;;25.36;22.56
78717;BME280;68045;50.042;14.432;2023-04-16T11:18:27;98385.94;;;24.26;24.04
78717;BME280;68045;50.042;14.432;2023-04-16T11:22:29;98383.22;;;25.89;21.84
78717;BME280;68045;50.042;14.432;2023-04-16T11:26:30;98381.72;;;28.55;19.08
78717;BME280;68045;50.042;14.432;2023-04-16T11:30:32;98390.44;;;31.61;16.08
78717;BME280;68045;50.042;14.432;2023-04-16T11:34:42;98384.03;;;33.85;12.67
78717;BME280;68045;50.042;14.432;2023-04-16T11:38:43;98393.22;;;33.55;13.79
78717;BME280;68045;50.042;14.432;2023-04-16T11:42:44;98384.28;;;31.90;15.00
78717;BME280;68045;50.042;14.432;2023-04-16T11:46:45;98383.72;;;31.09;15.22
78717;BME280;68045;50.042;14.432;2023-04-16T11:50:55;98389.81;;;32.24;14.88
78717;BME280;68045;50.042;14.432;2023-04-16T11:54:56;98381.91;;;33.13;14.02
78717;BME280;68045;50.042;14.432;2023-04-16T11:59:07;98376.09;;;32.84;14.53
78717;BME280;68045;50.042;14.432;2023-04-16T12:03:08;98373.22;;;30.88;15.85
78717;BME280;68045;50.042;14.432;2023-04-16T12:07:13;98383.41;;;29.03;17.13
78717;BME280;68045;50.042;14.432;2023-04-16T12:11:14;98387.75;;;29.20;17.67
78717;BME280;68045;50.042;14.432;2023-04-16T12:15:15;98384.13;;;29.00;17.04
78717;BME280;68045;50.042;14.432;2023-04-16T12:19:16;98377.97;;;28.07;17.63
78717;BME280;68045;50.042;14.432;2023-04-16T12:23:21;98380.44;;;27.14;19.89
78717;BME280;68045;50.042;14.432;2023-04-16T12:27:22;98379.88;;;26.54;20.41
78717;BME280;68045;50.042;14.432;2023-04-16T12:31:37;98379.41;;;26.73;20.25
78717;BME280;68045;50.042;14.432;2023-04-16T12:35:38;98372.41;;;26.72;20.29
78717;BME280;68045;50.042;14.432;2023-04-16T12:39:41;98376.94;;;25.97;20.75
78717;BME280;68045;50.042;14.432;2023-04-16T12:43:42;98376.75;;;25.81;21.26
78717;BME280;68045;50.042;14.432;2023-04-16T12:47:43;98372.69;;;26.17;20.73
78717;BME280;68045;50.042;14.432;2023-04-16T12:51:44;98369.72;;;26.31;21.01
78717;BME280;68045;50.042;14.432;2023-04-16T12:55:44;98373.81;;;26.16;20.83
78717;BME280;68045;50.042;14.432;2023-04-16T12:59:45;98376.41;;;25.83;20.28
78717;BME280;68045;50.042;14.432;2023-04-16T13:03:47;98368.13;;;25.79;21.20
78717;BME280;68045;50.042;14.432;2023-04-16T13:07:48;98366.91;;;25.77;21.22
78717;BME280;68045;50.042;14.432;2023-04-16T13:11:49;98356.16;;;25.59;21.04
78717;BME280;68045;50.042;14.432;2023-04-16T13:15:49;98361.72;;;25.25;21.92
78717;BME280;68045;50.042;14.432;2023-04-16T13:19:51;98358.66;;;24.45;21.70
78717;BME280;68045;50.042;14.432;2023-04-16T13:23:51;98363.50;;;23.82;22.72
78717;BME280;68045;50.042;14.432;2023-04-16T13:27:53;98362.72;;;23.02;23.93
78717;BME280;68045;50.042;14.432;2023-04-16T13:31:54;98358.00;;;22.85;25.45
78717;BME280;68045;50.042;14.432;2023-04-16T13:35:55;98355.94;;;22.37;25.40
78717;BME280;68045;50.042;14.432;2023-04-16T13:39:56;98353.25;;;21.87;26.87
78717;BME280;68045;50.042;14.432;2023-04-16T13:43:57;98357.63;;;21.15;27.90
78717;BME280;68045;50.042;14.432;2023-04-16T13:47:58;98359.75;;;21.31;27.90
78717;BME280;68045;50.042;14.432;2023-04-16T13:51:59;98357.16;;;21.54;26.84
78717;BME280;68045;50.042;14.432;2023-04-16T13:56:00;98357.66;;;21.70;26.57
78717;BME280;68045;50.042;14.432;2023-04-16T14:00:03;98349.41;;;21.52;25.69
78717;BME280;68045;50.042;14.432;2023-04-16T14:04:06;98356.03;;;21.27;27.13
78717;BME280;68045;50.042;14.432;2023-04-16T14:08:07;98352.75;;;21.17;27.45
78717;BME280;68045;50.042;14.432;2023-04-16T14:12:07;98358.25;;;20.93;26.91
78717;BME280;68045;50.042;14.432;2023-04-16T14:16:08;98352.56;;;20.48;28.31
78717;BME280;68045;50.042;14.432;2023-04-16T14:20:11;98355.09;;;20.39;29.49
78717;BME280;68045;50.042;14.432;2023-04-16T14:24:12;98347.72;;;20.31;29.44
78717;BME280;68045;50.042;14.432;2023-04-16T14:28:13;98349.44;;;20.22;29.60
78717;BME280;68045;50.042;14.432;2023-04-16T14:32:14;98349.00;;;20.15;30.04
78717;BME280;68045;50.042;14.432;2023-04-16T14:36:15;98347.88;;;20.02;30.29
78717;BME280;68045;50.042;14.432;2023-04-16T14:40:16;98347.94;;;19.97;30.80
78717;BME280;68045;50.042;14.432;2023-04-16T14:44:17;98346.34;;;19.96;30.08
78717;BME280;68045;50.042;14.432;2023-04-16T14:48:19;98359.09;;;19.61;30.96
78717;BME280;68045;50.042;14.432;2023-04-16T14:52:21;98351.31;;;19.36;31.03
78717;BME280;68045;50.042;14.432;2023-04-16T14:56:22;98345.81;;;19.03;31.54
78717;BME280;68045;50.042;14.432;2023-04-16T15:00:23;98353.63;;;18.94;32.26
78717;BME280;68045;50.042;14.432;2023-04-16T15:04:24;98355.78;;;18.92;32.48
78717;BME280;68045;50.042;14.432;2023-04-16T15:08:25;98358.31;;;18.79;32.86
78717;BME280;68045;50.042;14.432;2023-04-16T15:12:26;98354.63;;;18.75;32.79
78717;BME280;68045;50.042;14.432;2023-04-16T15:16:28;98364.06;;;18.62;32.66
78717;BME280;68045;50.042;14.432;2023-04-16T15:20:29;98359.63;;;18.47;32.66
78717;BME280;68045;50.042;14.432;2023-04-16T15:24:30;98354.31;;;18.42;32.98
78717;BME280;68045;50.042;14.432;2023-04-16T15:28:31;98359.16;;;18.35;33.05
78717;BME280;68045;50.042;14.432;2023-04-16T15:32:32;98357.97;;;18.12;33.04
78717;BME280;68045;50.042;14.432;2023-04-16T15:36:32;98362.06;;;17.99;33.07
78717;BME280;68045;50.042;14.432;2023-04-16T15:40:34;98353.34;;;17.83;33.37
78717;BME280;68045;50.042;14.432;2023-04-16T15:44:35;98360.28;;;17.79;34.31
78717;BME280;68045;50.042;14.432;2023-04-16T15:48:36;98357.41;;;17.71;34.28
78717;BME280;68045;50.042;14.432;2023-04-16T15:52:36;98350.97;;;17.67;33.77
78717;BME280;68045;50.042;14.432;2023-04-16T15:56:39;98371.00;;;17.69;34.03
78717;BME280;68045;50.042;14.432;2023-04-16T16:00:40;98368.84;;;17.66;33.64
78717;BME280;68045;50.042;14.432;2023-04-16T16:04:41;98372.31;;;17.62;33.38
78717;BME280;68045;50.042;14.432;2023-04-16T16:08:45;98382.53;;;17.49;33.92
78717;BME280;68045;50.042;14.432;2023-04-16T16:12:46;98378.84;;;17.35;34.27
78717;BME280;68045;50.042;14.432;2023-04-16T16:16:47;98383.63;;;17.33;34.75
78717;BME280;68045;50.042;14.432;2023-04-16T16:20:48;98381.78;;;17.18;36.98
78717;BME280;68045;50.042;14.432;2023-04-16T16:24:55;98392.50;;;17.13;37.97
78717;BME280;68045;50.042;14.432;2023-04-16T16:28:56;98375.69;;;17.02;37.75
78717;BME280;68045;50.042;14.432;2023-04-16T16:32:56;98380.78;;;16.79;37.39
78717;BME280;68045;50.042;14.432;2023-04-16T16:36:57;98382.59;;;16.63;38.37
78717;BME280;68045;50.042;14.432;2023-04-16T16:40:58;98385.25;;;16.47;38.28
78717;BME280;68045;50.042;14.432;2023-04-16T16:44:59;98386.84;;;16.33;38.65
78717;BME280;68045;50.042;14.432;2023-04-16T16:49:04;98387.03;;;16.06;38.59
78717;BME280;68045;50.042;14.432;2023-04-16T16:53:06;98393.69;;;16.04;38.65
78717;BME280;68045;50.042;14.432;2023-04-16T16:57:07;98405.88;;;15.79;37.46
78717;BME280;68045;50.042;14.432;2023-04-16T17:01:08;98405.91;;;15.42;38.22
78717;BME280;68045;50.042;14.432;2023-04-16T17:05:09;98409.13;;;15.07;38.95
78717;BME280;68045;50.042;14.432;2023-04-16T17:09:10;98414.50;;;14.75;40.03
78717;BME280;68045;50.042;14.432;2023-04-16T17:13:11;98419.56;;;14.49;41.35
78717;BME280;68045;50.042;14.432;2023-04-16T17:17:13;98426.91;;;14.42;42.20
78717;BME280;68045;50.042;14.432;2023-04-16T17:21:14;98434.81;;;14.10;43.19
78717;BME280;68045;50.042;14.432;2023-04-16T17:25:15;98441.72;;;14.11;43.20
78717;BME280;68045;50.042;14.432;2023-04-16T17:29:16;98444.56;;;14.05;43.68
78717;BME280;68045;50.042;14.432;2023-04-16T17:33:17;98446.78;;;13.91;44.56
78717;BME280;68045;50.042;14.432;2023-04-16T17:37:19;98455.63;;;13.80;44.71
78717;BME280;68045;50.042;14.432;2023-04-16T17:41:19;98458.72;;;13.71;44.97
78717;BME280;68045;50.042;14.432;2023-04-16T17:45:20;98467.03;;;13.58;45.45
78717;BME280;68045;50.042;14.432;2023-04-16T17:49:21;98473.00;;;13.49;45.85
78717;BME280;68045;50.042;14.432;2023-04-16T17:53:22;98469.78;;;13.30;45.95
78717;BME280;68045;50.042;14.432;2023-04-16T17:57:23;98480.63;;;13.11;47.20
78717;BME280;68045;50.042;14.432;2023-04-16T18:01:24;98477.25;;;12.99;49.31
78717;BME280;68045;50.042;14.432;2023-04-16T18:05:25;98486.44;;;12.80;50.11
78717;BME280;68045;50.042;14.432;2023-04-16T18:09:26;98495.34;;;12.74;51.75
78717;BME280;68045;50.042;14.432;2023-04-16T18:13:27;98497.81;;;12.63;52.26
78717;BME280;68045;50.042;14.432;2023-04-16T18:17:28;98499.94;;;12.50;52.82
78717;BME280;68045;50.042;14.432;2023-04-16T18:21:30;98507.59;;;12.34;53.44
78717;BME280;68045;50.042;14.432;2023-04-16T18:25:31;98512.91;;;12.23;55.01
78717;BME280;68045;50.042;14.432;2023-04-16T18:29:32;98514.47;;;12.07;55.62
78717;BME280;68045;50.042;14.432;2023-04-16T18:33:33;98525.72;;;11.91;56.22
78717;BME280;68045;50.042;14.432;2023-04-16T18:37:34;98524.47;;;11.81;56.56
78717;BME280;68045;50.042;14.432;2023-04-16T18:41:35;98538.84;;;11.74;57.21
78717;BME280;68045;50.042;14.432;2023-04-16T18:45:36;98546.75;;;11.62;57.58
78717;BME280;68045;50.042;14.432;2023-04-16T18:49:37;98548.94;;;11.53;58.14
78717;BME280;68045;50.042;14.432;2023-04-16T18:53:38;98554.22;;;11.53;57.67
78717;BME280;68045;50.042;14.432;2023-04-16T18:57:39;98560.09;;;11.44;58.81
78717;BME280;68045;50.042;14.432;2023-04-16T19:01:39;98560.75;;;11.39;59.25
78717;BME280;68045;50.042;14.432;2023-04-16T19:05:40;98563.16;;;11.41;59.11
78717;BME280;68045;50.042;14.432;2023-04-16T19:09:41;98571.47;;;11.44;59.16
78717;BME280;68045;50.042;14.432;2023-04-16T19:13:45;98575.25;;;11.37;59.06
78717;BME280;68045;50.042;14.432;2023-04-16T19:17:46;98574.78;;;11.28;60.30
78717;BME280;68045;50.042;14.432;2023-04-16T19:21:47;98573.22;;;11.20;60.53
78717;BME280;68045;50.042;14.432;2023-04-16T19:25:49;98578.09;;;11.23;60.59
78717;BME280;68045;50.042;14.432;2023-04-16T19:29:53;98587.56;;;11.13;61.93
78717;BME280;68045;50.042;14.432;2023-04-16T19:33:54;98587.47;;;11.08;61.32
78717;BME280;68045;50.042;14.432;2023-04-16T19:37:55;98588.59;;;11.12;62.02
78717;BME280;68045;50.042;14.432;2023-04-16T19:41:56;98590.69;;;11.10;61.55
78717;BME280;68045;50.042;14.432;2023-04-16T19:45:59;98596.28;;;11.02;62.46
78717;BME280;68045;50.042;14.432;2023-04-16T19:50:00;98597.16;;;10.95;62.22
78717;BME280;68045;50.042;14.432;2023-04-16T19:54:01;98596.94;;;10.97;62.27
78717;BME280;68045;50.042;14.432;2023-04-16T19:58:02;98595.28;;;10.84;63.21
78717;BME280;68045;50.042;14.432;2023-04-16T20:02:06;98606.28;;;10.81;63.85
78717;BME280;68045;50.042;14.432;2023-04-16T20:06:06;98606.28;;;10.81;63.45
78717;BME280;68045;50.042;14.432;2023-04-16T20:10:08;98606.59;;;10.73;63.95
78717;BME280;68045;50.042;14.432;2023-04-16T20:14:09;98602.75;;;10.57;64.25
78717;BME280;68045;50.042;14.432;2023-04-16T20:18:10;98606.03;;;10.53;65.15
78717;BME280;68045;50.042;14.432;2023-04-16T20:22:12;98607.78;;;10.40;65.69
78717;BME280;68045;50.042;14.432;2023-04-16T20:26:14;98608.31;;;10.31;65.50
78717;BME280;68045;50.042;14.432;2023-04-16T20:30:18;98603.50;;;10.21;65.86
78717;BME280;68045;50.042;14.432;2023-04-16T20:34:22;98605.97;;;10.23;65.38
78717;BME280;68045;50.042;14.432;2023-04-16T20:38:22;98612.63;;;10.25;65.72
78717;BME280;68045;50.042;14.432;2023-04-16T20:42:23;98609.53;;;10.28;65.45
78717;BME280;68045;50.042;14.432;2023-04-16T20:46:25;98603.25;;;10.29;65.98
78717;BME280;68045;50.042;14.432;2023-04-16T20:50:29;98612.34;;;10.33;65.70
78717;BME280;68045;50.042;14.432;2023-04-16T20:54:30;98617.78;;;10.38;65.48
78717;BME280;68045;50.042;14.432;2023-04-16T20:58:31;98608.00;;;10.39;64.96
78717;BME280;68045;50.042;14.432;2023-04-16T21:02:32;98611.06;;;10.36;65.31
78717;BME280;68045;50.042;14.432;2023-04-16T21:06:33;98615.41;;;10.30;65.26
78717;BME280;68045;50.042;14.432;2023-04-16T21:10:39;98614.84;;;10.22;65.50